Time;durP1;ratioP1;P1;durP2;ratioP2;P2;SDS_P1;SDS_P2;PMS_P1;PMS_P2;Temp;Humidity;BMP_temperature;BMP_pressure;BME280_temperature;BME280_humidity;BME280_pressure;Samples;Min_cycle;Max_cycle;Signal;HPM_P1;HPM_P2
2023/06/19 00:00:07;;;;;;;13.80;10.07;;;22.90;99.90;;;;;;5056222;28;20101;-67
2023/06/19 00:02:33;;;;;;;9.30;8.35;;;22.80;99.90;;;;;;5056171;28;20017;-67
2023/06/19 00:04:58;;;;;;;11.40;8.98;;;22.90;99.90;;;;;;5056146;28;20032;-67
2023/06/19 00:07:24;;;;;;;10.77;9.73;;;22.80;1.00;;;;;;5056046;28;20471;-67
2023/06/19 00:09:49;;;;;;;11.05;9.27;;;22.80;1.00;;;;;;5056125;28;20032;-67
2023/06/19 00:12:15;;;;;;;10.30;9.30;;;22.80;1.00;;;;;;5055846;28;20502;-67
2023/06/19 00:14:40;;;;;;;10.10;9.10;;;22.80;1.00;;;;;;5056022;28;20490;-67
2023/06/19 00:17:06;;;;;;;13.63;9.98;;;22.80;1.00;;;;;;5055761;28;20039;-67
2023/06/19 00:19:35;;;;;;;12.68;9.85;;;22.80;1.00;;;;;;5055419;28;20071;-67
2023/06/19 00:22:02;;;;;;;13.43;10.40;;;22.80;1.00;;;;;;5055746;28;20505;-67
2023/06/19 00:24:28;;;;;;;11.32;10.20;;;22.70;1.00;;;;;;5055801;28;20516;-67
2023/06/19 00:26:54;;;;;;;11.30;10.10;;;22.70;1.00;;;;;;5055303;28;20061;-67
2023/06/19 00:29:19;;;;;;;10.35;9.32;;;22.70;1.00;;;;;;5056021;28;20056;-67
2023/06/19 00:31:45;;;;;;;14.07;10.20;;;22.60;1.00;;;;;;5055424;28;20029;-67
2023/06/19 00:34:10;;;;;;;11.50;9.48;;;22.60;1.00;;;;;;5055277;28;20092;-67
2023/06/19 00:36:40;;;;;;;13.45;9.38;;;22.60;1.00;;;;;;5055425;28;20053;-67
2023/06/19 00:39:07;;;;;;;12.35;9.18;;;22.60;1.00;;;;;;5055281;28;20029;-67
2023/06/19 00:41:35;;;;;;;10.32;8.48;;;22.60;1.00;;;;;;5054989;28;20028;-67
2023/06/19 00:44:01;;;;;;;10.80;9.30;;;22.60;1.00;;;;;;5055378;28;20116;-67
2023/06/19 00:46:26;;;;;;;12.00;9.23;;;22.60;1.00;;;;;;5055223;28;20107;-67
2023/06/19 00:48:52;;;;;;;9.38;8.48;;;22.60;14.10;;;;;;5055043;28;20086;-67
2023/06/19 00:51:18;;;;;;;9.57;8.57;;;22.60;44.20;;;;;;5055407;28;20087;-67
2023/06/19 00:53:43;;;;;;;8.90;8.10;;;22.60;95.80;;;;;;5055056;28;20033;-67
2023/06/19 00:56:09;;;;;;;9.38;8.40;;;22.50;99.90;;;;;;5055215;28;20115;-66
2023/06/19 00:58:35;;;;;;;8.70;7.90;;;22.40;99.90;;;;;;5054939;28;20032;-67
2023/06/19 01:01:01;;;;;;;9.73;8.80;;;22.40;99.90;;;;;;5055158;28;20029;-67
2023/06/19 01:03:26;;;;;;;9.48;8.50;;;22.40;99.90;;;;;;5054997;28;20498;-67
2023/06/19 01:05:54;;;;;;;10.20;8.43;;;22.40;99.90;;;;;;5055068;28;20068;-67
2023/06/19 01:08:43;;;;;;;9.90;8.48;;;22.40;99.90;;;;;;5055049;28;20036;-66
2023/06/19 01:11:11;;;;;;;9.95;8.35;;;22.30;99.90;;;;;;5054669;28;20021;-67
2023/06/19 01:13:45;;;;;;;9.65;8.15;;;22.30;99.90;;;;;;5054821;28;20082;-66
2023/06/19 01:16:12;;;;;;;11.80;8.80;;;22.30;1.00;;;;;;5054639;28;20471;-66
2023/06/19 01:18:38;;;;;;;12.52;8.43;;;22.20;1.00;;;;;;5054669;28;20025;-67
2023/06/19 01:21:18;;;;;;;8.15;7.35;;;22.20;1.00;;;;;;5054559;28;20391;-67
2023/06/19 01:23:45;;;;;;;9.27;8.07;;;22.10;1.00;;;;;;5054669;28;20104;-67
2023/06/19 01:26:11;;;;;;;8.75;7.93;;;22.00;83.80;;;;;;5054625;28;20028;-67
2023/06/19 01:28:39;;;;;;;8.73;7.93;;;21.90;99.90;;;;;;5054608;28;20033;-67
2023/06/19 01:31:15;;;;;;;12.27;8.50;;;21.90;99.90;;;;;;5054162;28;20025;-67
2023/06/19 01:33:44;;;;;;;8.45;7.65;;;21.80;99.90;;;;;;5054482;28;20463;-67
2023/06/19 01:36:11;;;;;;;8.70;7.68;;;21.80;99.90;;;;;;5054070;28;20060;-67
2023/06/19 01:38:38;;;;;;;10.23;8.57;;;21.80;1.00;;;;;;5054221;28;20458;-67
2023/06/19 01:41:06;;;;;;;9.98;8.32;;;21.70;1.00;;;;;;5054243;28;20540;-67
2023/06/19 01:43:32;;;;;;;9.57;8.55;;;21.80;1.00;;;;;;5053966;28;20029;-66
2023/06/19 01:45:59;;;;;;;8.73;7.93;;;21.80;73.10;;;;;;5054335;28;20029;-66
2023/06/19 01:48:25;;;;;;;8.65;7.75;;;21.70;99.90;;;;;;5054131;28;20032;-67
2023/06/19 01:50:50;;;;;;;10.32;8.23;;;21.70;99.90;;;;;;5054331;28;20087;-67
2023/06/19 01:53:16;;;;;;;9.13;8.05;;;21.70;99.90;;;;;;5054063;28;20474;-67
2023/06/19 01:55:43;;;;;;;10.32;8.65;;;21.60;1.00;;;;;;5053805;28;20028;-67
2023/06/19 01:58:08;;;;;;;10.57;8.25;;;21.50;1.00;;;;;;5053853;28;20032;-67
2023/06/19 02:00:35;;;;;;;8.77;7.85;;;21.50;99.90;;;;;;5053275;28;20025;-68
2023/06/19 02:03:01;;;;;;;7.95;7.25;;;21.50;99.90;;;;;;5053936;28;20028;-67
2023/06/19 02:05:27;;;;;;;8.77;7.97;;;21.50;99.90;;;;;;5053952;28;20367;-67
2023/06/19 02:07:52;;;;;;;9.35;8.45;;;21.40;99.90;;;;;;5053892;28;20028;-67
2023/06/19 02:10:18;;;;;;;10.13;8.70;;;21.40;1.00;;;;;;5053806;28;20035;-67
2023/06/19 02:12:43;;;;;;;9.35;8.00;;;21.30;85.50;;;;;;5053641;28;20036;-67
2023/06/19 02:15:09;;;;;;;8.48;7.68;;;21.40;99.90;;;;;;5053542;28;20025;-67
2023/06/19 02:17:35;;;;;;;9.60;8.00;;;21.30;99.90;;;;;;5053572;28;20367;-68
2023/06/19 02:20:00;;;;;;;9.75;8.77;;;21.30;1.00;;;;;;5053740;28;20104;-67
2023/06/19 02:22:26;;;;;;;9.45;8.43;;;21.30;1.00;;;;;;5053735;28;20029;-67
2023/06/19 02:24:51;;;;;;;9.07;8.18;;;21.20;1.00;;;;;;5053505;28;20479;-67
2023/06/19 02:27:17;;;;;;;10.68;8.35;;;21.20;24.00;;;;;;5053592;28;20082;-67
2023/06/19 02:29:42;;;;;;;9.05;8.15;;;21.20;1.00;;;;;;5053558;28;20064;-67
2023/06/19 02:32:08;;;;;;;10.15;8.52;;;21.20;99.90;;;;;;5053446;28;20033;-67
2023/06/19 02:34:34;;;;;;;8.80;7.97;;;21.20;99.90;;;;;;5053110;28;20017;-67
2023/06/19 02:36:59;;;;;;;9.70;8.70;;;21.30;1.00;;;;;;5053108;28;20502;-68
2023/06/19 02:39:25;;;;;;;9.75;8.10;;;21.30;1.00;;;;;;5053003;28;20024;-68
2023/06/19 02:41:50;;;;;;;9.48;8.57;;;21.30;99.90;;;;;;5053290;28;20032;-67
2023/06/19 02:44:16;;;;;;;9.65;7.95;;;21.30;99.90;;;;;;5053341;28;20024;-67
2023/06/19 02:46:41;;;;;;;10.43;8.88;;;21.30;99.90;;;;;;5053328;28;20104;-67
2023/06/19 02:49:07;;;;;;;9.52;8.63;;;21.30;99.90;;;;;;5053012;28;20033;-67
2023/06/19 02:51:33;;;;;;;9.77;8.77;;;21.30;99.90;;;;;;5053257;28;20036;-67
2023/06/19 02:53:58;;;;;;;10.95;8.43;;;21.30;1.00;;;;;;5053257;28;20032;-67
2023/06/19 02:56:24;;;;;;;11.82;8.93;;;21.30;99.90;;;;;;5053312;28;20119;-67
2023/06/19 02:58:50;;;;;;;10.15;9.15;;;21.30;99.90;;;;;;5052896;28;20120;-67
2023/06/19 03:01:19;;;;;;;8.65;7.85;;;21.30;99.90;;;;;;5053115;28;20057;-67
2023/06/19 03:03:46;;;;;;;9.90;8.90;;;21.30;99.90;;;;;;5052913;28;20486;-67
2023/06/19 03:06:13;;;;;;;9.85;8.95;;;21.30;99.90;;;;;;5053192;28;20124;-67
2023/06/19 03:08:39;;;;;;;10.07;8.82;;;21.30;99.90;;;;;;5053132;28;20029;-67
2023/06/19 03:11:05;;;;;;;10.77;8.93;;;21.30;99.90;;;;;;5055088;28;20025;-67
2023/06/19 03:13:49;;;;;;;10.50;9.35;;;21.30;99.90;;;;;;5056814;28;20479;-67
2023/06/19 03:16:15;;;;;;;9.75;8.75;;;21.30;1.00;;;;;;5057115;28;20108;-67
2023/06/19 03:18:44;;;;;;;8.65;7.85;;;21.30;99.90;;;;;;5056913;28;20120;-67
2023/06/19 03:21:10;;;;;;;9.27;8.13;;;21.30;1.00;;;;;;5056994;28;20390;-68
2023/06/19 03:23:36;;;;;;;9.50;8.43;;;21.20;99.90;;;;;;5056802;28;20017;-67
2023/06/19 03:26:01;;;;;;;9.40;8.43;;;21.20;1.00;;;;;;5056814;28;20021;-67
2023/06/19 03:28:27;;;;;;;9.50;8.50;;;21.20;99.90;;;;;;5056785;28;20371;-67
2023/06/19 03:30:53;;;;;;;9.63;8.50;;;21.20;99.90;;;;;;5056800;28;20146;-67
2023/06/19 03:33:18;;;;;;;10.07;9.07;;;21.20;99.90;;;;;;5056563;28;20025;-67
2023/06/19 03:35:44;;;;;;;9.77;8.77;;;21.10;99.90;;;;;;5056699;28;20025;-67
2023/06/19 03:38:09;;;;;;;9.07;8.20;;;21.20;99.90;;;;;;5056230;28;20136;-67
2023/06/19 03:40:35;;;;;;;12.73;9.00;;;21.20;6.00;;;;;;5056713;28;20478;-67
2023/06/19 03:43:00;;;;;;;11.13;8.90;;;21.20;99.90;;;;;;5056732;28;20116;-67
2023/06/19 03:45:26;;;;;;;10.05;9.05;;;21.10;1.00;;;;;;5056395;28;20032;-67
2023/06/19 03:47:51;;;;;;;9.45;8.45;;;21.10;1.00;;;;;;5056503;28;20025;-67
2023/06/19 03:50:17;;;;;;;9.95;8.90;;;21.10;1.00;;;;;;5056437;28;20029;-67
2023/06/19 03:52:43;;;;;;;10.70;9.07;;;21.10;1.00;;;;;;5056411;28;20505;-68
2023/06/19 03:55:08;;;;;;;10.13;9.05;;;21.00;99.90;;;;;;5056047;28;20489;-67
2023/06/19 03:57:34;;;;;;;12.40;9.18;;;21.00;99.90;;;;;;5056279;28;20029;-67
2023/06/19 03:59:59;;;;;;;10.45;8.73;;;21.00;99.90;;;;;;5055966;28;20063;-67
2023/06/19 04:02:25;;;;;;;12.77;9.27;;;21.00;1.00;;;;;;5056397;28;20117;-67
2023/06/19 04:04:51;;;;;;;12.10;9.70;;;21.10;1.00;;;;;;5056078;28;20414;-67
2023/06/19 04:07:16;;;;;;;11.65;9.23;;;21.00;99.90;;;;;;5056152;28;20159;-67
2023/06/19 04:09:42;;;;;;;14.18;9.45;;;21.00;99.90;;;;;;5055719;28;20037;-67
2023/06/19 04:12:08;;;;;;;15.52;9.20;;;21.10;99.90;;;;;;5056118;28;20037;-67
2023/06/19 04:14:33;;;;;;;12.48;9.02;;;21.20;99.90;;;;;;5055811;28;20394;-67
2023/06/19 04:16:59;;;;;;;9.70;8.55;;;21.30;99.90;;;;;;5056005;28;20115;-67
2023/06/19 04:19:24;;;;;;;10.13;9.10;;;21.50;99.90;;;;;;5055798;28;20037;-66
2023/06/19 04:21:50;;;;;;;9.38;8.10;;;21.70;99.90;;;;;;5055108;28;20051;-67
2023/06/19 04:24:15;;;;;;;13.68;8.90;;;21.80;1.00;;;;;;5055731;28;20050;-67
2023/06/19 04:26:42;;;;;;;11.43;8.35;;;21.90;1.00;;;;;;5055611;28;20036;-67
2023/06/19 04:29:07;;;;;;;8.82;7.93;;;21.90;1.00;;;;;;5055255;28;20064;-67
2023/06/19 04:31:40;;;;;;;10.02;8.18;;;22.00;1.00;;;;;;5055718;28;20048;-67
2023/06/19 04:34:06;;;;;;;10.88;7.97;;;22.10;99.90;;;;;;5055615;28;20035;-67
2023/06/19 04:36:31;;;;;;;11.13;7.75;;;22.30;99.90;;;;;;5055291;28;20057;-67
2023/06/19 04:38:58;;;;;;;12.07;7.57;;;22.40;99.90;;;;;;5055210;28;20075;-67
2023/06/19 04:41:23;;;;;;;10.88;6.78;;;22.60;99.90;;;;;;5055565;28;20045;-67
2023/06/19 04:43:49;;;;;;;8.40;6.88;;;22.80;99.90;;;;;;5055431;28;20052;-67
2023/06/19 04:46:20;;;;;;;8.57;5.72;;;23.00;99.90;;;;;;5055221;28;20021;-67
2023/06/19 04:48:50;;;;;;;7.72;5.70;;;23.10;99.90;;;;;;5055399;28;20727;-67
2023/06/19 04:51:20;;;;;;;7.68;5.28;;;23.20;99.90;;;;;;5055295;28;20025;-67
2023/06/19 04:53:45;;;;;;;7.55;4.78;;;23.00;99.90;;;;;;5055098;28;20138;-67
2023/06/19 04:56:11;;;;;;;14.80;4.88;;;23.10;99.90;;;;;;5055250;28;20044;-67
2023/06/19 04:58:43;;;;;;;7.10;4.25;;;23.00;99.90;;;;;;5054718;28;20496;-67
2023/06/19 05:01:10;;;;;;;9.68;4.45;;;23.00;99.90;;;;;;5055267;28;20021;-67
2023/06/19 05:03:35;;;;;;;8.23;4.40;;;23.00;99.90;;;;;;5055166;28;20388;-67
2023/06/19 05:06:01;;;;;;;9.18;4.57;;;23.30;99.90;;;;;;5054731;28;20025;-67
2023/06/19 05:08:26;;;;;;;7.60;4.53;;;23.30;99.90;;;;;;5055022;28;20036;-67
2023/06/19 05:10:53;;;;;;;9.07;4.35;;;23.00;99.90;;;;;;5054685;28;20032;-67
2023/06/19 05:13:19;;;;;;;10.45;4.30;;;23.10;99.90;;;;;;5054999;28;20021;-67
2023/06/19 05:15:44;;;;;;;12.30;4.75;;;23.30;99.90;;;;;;5054637;28;20371;-67
2023/06/19 05:18:10;;;;;;;6.65;4.20;;;23.30;99.90;;;;;;5054654;28;20549;-66
2023/06/19 05:20:35;;;;;;;5.53;4.55;;;23.20;99.90;;;;;;5054591;28;20028;-66
2023/06/19 05:23:01;;;;;;;12.55;4.93;;;23.30;99.90;;;;;;5054650;28;20021;-67
2023/06/19 05:25:27;;;;;;;4.82;4.40;;;23.30;99.90;;;;;;5054568;28;20060;-67
2023/06/19 05:27:53;;;;;;;10.45;4.07;;;23.20;99.90;;;;;;5054505;28;20053;-67
2023/06/19 05:30:18;;;;;;;4.63;3.88;;;23.70;99.90;;;;;;5054395;28;20032;-67
2023/06/19 05:32:44;;;;;;;11.40;3.90;;;23.80;99.90;;;;;;5053389;28;20025;-67
2023/06/19 05:35:09;;;;;;;8.55;3.78;;;23.80;99.90;;;;;;5054433;28;20079;-67
2023/06/19 05:37:35;;;;;;;6.20;3.72;;;24.10;99.90;;;;;;5054080;28;20463;-67
2023/06/19 05:40:01;;;;;;;12.68;4.13;;;24.10;99.90;;;;;;5053933;28;20032;-67
2023/06/19 05:42:26;;;;;;;4.28;3.58;;;24.00;99.90;;;;;;5053853;28;20033;-67
2023/06/19 05:44:52;;;;;;;10.85;4.20;;;23.90;99.90;;;;;;5054180;28;20037;-66
2023/06/19 05:47:20;;;;;;;8.30;3.95;;;23.30;99.90;;;;;;5054064;28;20454;-67
2023/06/19 05:49:46;;;;;;;5.03;3.80;;;23.40;99.90;;;;;;5053850;28;20079;-67
2023/06/19 05:52:12;;;;;;;11.65;4.05;;;23.60;99.90;;;;;;5054240;28;20498;-67
2023/06/19 05:54:37;;;;;;;12.18;4.30;;;23.50;99.90;;;;;;5053778;28;20056;-67
2023/06/19 05:57:03;;;;;;;10.05;4.00;;;23.50;99.90;;;;;;5053624;28;20078;-67
2023/06/19 05:59:29;;;;;;;9.93;3.97;;;23.50;1.00;;;;;;5053823;28;20036;-67
2023/06/19 06:01:55;;;;;;;7.85;4.10;;;23.60;67.80;;;;;;5053940;28;20025;-67
2023/06/19 06:04:21;;;;;;;7.30;4.32;;;23.80;11.70;;;;;;5053569;28;20031;-67
2023/06/19 06:06:47;;;;;;;7.55;4.07;;;24.10;21.30;;;;;;5053558;28;20052;-67
2023/06/19 06:09:13;;;;;;;7.43;3.85;;;24.10;93.50;;;;;;5053674;28;20056;-68
2023/06/19 06:11:38;;;;;;;8.35;3.55;;;24.50;1.00;;;;;;5053796;28;20017;-67
2023/06/19 06:14:04;;;;;;;9.27;3.80;;;24.90;1.00;;;;;;5053695;28;20438;-66
2023/06/19 06:16:29;;;;;;;6.35;4.38;;;24.70;99.90;;;;;;5053445;28;20104;-66
2023/06/19 06:18:55;;;;;;;6.78;3.83;;;25.10;99.90;;;;;;5047371;28;20414;-67
2023/06/19 06:21:20;;;;;;;5.90;3.83;;;25.20;1.00;;;;;;5059954;28;20031;-64
2023/06/19 06:23:47;;;;;;;5.72;3.85;;;24.90;1.00;;;;;;5048878;28;20037;-65
2023/06/19 06:26:14;;;;;;;4.40;3.90;;;25.30;1.00;;;;;;5047639;28;20094;-64
2023/06/19 06:28:40;;;;;;;7.15;3.92;;;25.50;99.90;;;;;;5051002;28;20398;-65
2023/06/19 06:31:06;;;;;;;4.70;2.97;;;25.10;99.90;;;;;;5047218;28;20037;-64
2023/06/19 06:33:32;;;;;;;4.10;3.10;;;24.90;99.90;;;;;;5058405;28;20047;-63
2023/06/19 06:35:59;;;;;;;3.67;3.13;;;24.40;99.90;;;;;;5049987;28;20376;-65
2023/06/19 06:38:24;;;;;;;5.78;2.95;;;25.70;99.90;;;;;;5050765;28;20466;-64
2023/06/19 06:40:50;;;;;;;4.85;3.20;;;25.20;99.90;;;;;;5046392;28;20021;-64
2023/06/19 06:43:16;;;;;;;5.13;3.28;;;25.20;99.90;;;;;;5038768;28;20029;-64
2023/06/19 06:45:42;;;;;;;4.63;2.85;;;25.20;99.90;;;;;;5044925;28;20490;-65
2023/06/19 06:48:08;;;;;;;7.85;3.20;;;25.30;99.90;;;;;;5049832;28;20486;-65
2023/06/19 06:50:34;;;;;;;5.30;3.17;;;25.40;99.90;;;;;;5047583;28;20065;-64
2023/06/19 06:53:00;;;;;;;4.70;2.88;;;25.80;99.90;;;;;;5046212;28;20036;-65
2023/06/19 06:55:25;;;;;;;3.53;3.00;;;25.40;99.90;;;;;;5051117;28;20041;-64
2023/06/19 06:57:51;;;;;;;6.97;2.83;;;24.80;99.90;;;;;;5044015;28;20036;-65
2023/06/19 07:00:18;;;;;;;9.25;3.00;;;24.50;99.90;;;;;;5047640;28;20963;-67
2023/06/19 07:02:44;;;;;;;4.10;3.05;;;25.30;99.90;;;;;;5044596;28;20503;-66
2023/06/19 07:05:10;;;;;;;10.57;3.25;;;25.50;99.90;;;;;;5047849;28;20078;-65
2023/06/19 07:07:36;;;;;;;4.57;3.42;;;25.00;99.90;;;;;;5045596;28;20017;-65
2023/06/19 07:10:01;;;;;;;6.60;4.32;;;25.00;99.90;;;;;;5043349;28;20047;-66
2023/06/19 07:12:27;;;;;;;4.53;4.13;;;23.80;99.90;;;;;;5050655;28;20146;-66
2023/06/19 07:14:55;;;;;;;7.05;3.63;;;24.00;99.90;;;;;;5050499;28;20032;-67
2023/06/19 07:17:20;;;;;;;4.53;3.38;;;24.80;99.90;;;;;;5046635;28;20120;-69
2023/06/19 07:19:46;;;;;;;9.60;3.72;;;24.60;1.00;;;;;;5042537;28;20104;-69
2023/06/19 07:22:13;;;;;;;6.35;3.10;;;24.70;1.00;;;;;;5048016;28;20033;-68
2023/06/19 07:24:40;;;;;;;5.82;3.25;;;25.30;1.00;;;;;;5045749;28;20025;-65
2023/06/19 07:27:06;;;;;;;7.28;3.67;;;25.60;99.90;;;;;;5039986;28;20378;-67
2023/06/19 07:29:32;;;;;;;7.13;3.47;;;25.70;99.90;;;;;;5042503;28;20025;-64
2023/06/19 07:32:00;;;;;;;5.55;3.50;;;25.40;99.90;;;;;;5044647;28;20025;-65
2023/06/19 07:34:26;;;;;;;8.65;3.40;;;24.70;1.00;;;;;;5045754;28;20108;-65
2023/06/19 07:36:51;;;;;;;4.82;3.40;;;24.00;1.00;;;;;;5049626;28;20056;-65
2023/06/19 07:39:17;;;;;;;4.68;3.45;;;23.70;1.00;;;;;;5046343;28;20037;-67
2023/06/19 07:41:43;;;;;;;6.50;3.20;;;24.40;1.00;;;;;;5049057;28;20025;-67
2023/06/19 07:44:08;;;;;;;5.22;3.40;;;25.90;99.90;;;;;;5048699;28;20545;-65
2023/06/19 07:46:34;;;;;;;7.30;3.55;;;25.90;99.90;;;;;;5051582;28;20475;-66
2023/06/19 07:48:59;;;;;;;5.25;4.00;;;25.30;99.90;;;;;;5052943;28;20033;-65
2023/06/19 07:51:25;;;;;;;6.25;4.93;;;24.40;1.00;;;;;;5054866;28;20498;-65
2023/06/19 07:53:50;;;;;;;7.97;5.18;;;24.10;1.00;;;;;;5050964;28;20044;-65
2023/06/19 07:56:16;;;;;;;7.15;4.80;;;23.50;1.00;;;;;;5049684;28;20025;-65
2023/06/19 07:58:41;;;;;;;7.55;6.00;;;23.30;99.90;;;;;;5053205;28;20025;-65
2023/06/19 08:01:07;;;;;;;6.45;5.85;;;23.20;99.90;;;;;;5052514;28;20033;-66
2023/06/19 08:03:32;;;;;;;9.63;5.43;;;23.20;99.90;;;;;;5052317;28;20372;-65
2023/06/19 08:05:58;;;;;;;8.70;5.60;;;23.20;99.90;;;;;;5050485;28;20531;-65
2023/06/19 08:08:23;;;;;;;6.20;5.68;;;22.90;1.00;;;;;;5054080;28;20475;-66
2023/06/19 08:10:49;;;;;;;7.53;5.53;;;23.00;46.30;;;;;;5055509;28;20033;-65
2023/06/19 08:13:14;;;;;;;7.97;4.85;;;23.20;1.00;;;;;;5048754;28;20472;-64
2023/06/19 08:15:40;;;;;;;5.88;4.68;;;23.30;1.00;;;;;;5048466;28;20506;-65
2023/06/19 08:18:06;;;;;;;7.15;4.22;;;23.50;99.90;;;;;;5051955;28;20029;-64
2023/06/19 08:20:31;;;;;;;8.70;4.50;;;23.50;99.90;;;;;;5038825;28;20057;-66
2023/06/19 08:22:57;;;;;;;5.88;3.88;;;23.30;99.90;;;;;;5046323;28;20436;-66
2023/06/19 08:25:22;;;;;;;9.07;4.72;;;23.30;99.90;;;;;;5049994;28;20033;-65
2023/06/19 08:27:48;;;;;;;5.72;4.38;;;23.70;99.90;;;;;;5057296;28;20497;-65
2023/06/19 08:30:14;;;;;;;5.45;3.83;;;24.50;99.90;;;;;;5050910;28;20108;-65
2023/06/19 08:32:39;;;;;;;5.35;4.38;;;24.40;1.00;;;;;;5054261;28;20064;-65
2023/06/19 08:35:05;;;;;;;6.93;4.43;;;23.70;64.50;;;;;;5048793;28;20100;-65
2023/06/19 08:37:30;;;;;;;6.38;4.93;;;23.40;99.90;;;;;;5051717;28;20053;-66
2023/06/19 08:39:56;;;;;;;6.82;5.07;;;23.50;99.90;;;;;;5044166;28;20530;-65
2023/06/19 08:42:22;;;;;;;6.40;4.95;;;23.30;99.90;;;;;;5048106;28;20033;-65
2023/06/19 08:44:48;;;;;;;6.03;5.53;;;23.40;1.00;;;;;;5050125;28;20056;-65
2023/06/19 08:47:14;;;;;;;7.13;5.63;;;23.30;99.90;;;;;;5053065;28;20039;-65
2023/06/19 08:49:40;;;;;;;6.13;5.43;;;23.10;1.00;;;;;;5058248;28;20032;-66
2023/06/19 08:52:06;;;;;;;8.75;5.80;;;23.00;1.00;;;;;;5066192;28;20110;-66
2023/06/19 08:54:32;;;;;;;7.70;5.88;;;23.30;1.00;;;;;;5050599;28;20025;-66
2023/06/19 08:57:02;;;;;;;7.70;5.53;;;23.40;1.00;;;;;;5048263;28;20033;-66
2023/06/19 08:59:28;;;;;;;6.15;5.55;;;23.50;99.90;;;;;;5045456;28;20033;-65
2023/06/19 09:01:54;;;;;;;8.13;5.47;;;23.80;99.90;;;;;;5046410;28;20024;-66
2023/06/19 09:04:23;;;;;;;5.80;5.30;;;24.10;99.90;;;;;;5046138;28;20028;-66
2023/06/19 09:06:54;;;;;;;6.18;5.55;;;24.50;99.90;;;;;;5065098;28;20374;-66
2023/06/19 09:09:21;;;;;;;6.63;5.93;;;24.70;93.00;;;;;;5049507;28;20082;-66
2023/06/19 09:14:43;;;;;;;7.55;6.22;;;24.30;29.00;;;;;;5108708;27;20404;-67
2023/06/19 09:17:16;;;;;;;6.57;6.00;;;24.60;33.80;;;;;;5084336;28;20027;-66
2023/06/19 09:19:51;;;;;;;6.95;6.10;;;24.60;43.00;;;;;;5096982;28;20032;-66
2023/06/19 09:22:19;;;;;;;3.97;3.55;;;24.40;99.90;;;;;;5096606;28;20051;-65
2023/06/19 09:24:45;;;;;;;4.90;3.40;;;24.10;99.90;;;;;;5089265;28;20029;-65
2023/06/19 09:27:14;;;;;;;6.25;3.40;;;24.10;99.90;;;;;;5089735;28;20021;-67
2023/06/19 09:29:42;;;;;;;9.65;3.45;;;24.30;99.90;;;;;;5088102;28;20107;-66
2023/06/19 09:32:28;;;;;;;5.32;3.28;;;24.00;99.90;;;;;;5095496;28;20030;-65
2023/06/19 09:34:55;;;;;;;6.28;3.25;;;23.90;99.90;;;;;;5094284;28;20477;-66
2023/06/19 09:37:25;;;;;;;5.25;3.20;;;23.80;99.90;;;;;;5085899;28;20020;-66
2023/06/19 09:39:54;;;;;;;5.97;2.78;;;24.00;99.90;;;;;;5100212;28;20020;-67
2023/06/19 09:42:29;;;;;;;3.75;3.25;;;24.10;99.90;;;;;;5092352;28;20024;-66
2023/06/19 09:45:01;;;;;;;3.10;2.33;;;23.90;99.90;;;;;;5082842;28;20077;-66
2023/06/19 09:47:31;;;;;;;5.32;2.30;;;24.20;99.90;;;;;;5101276;28;20390;-66
2023/06/19 09:49:57;;;;;;;4.80;2.42;;;24.30;99.90;;;;;;5090189;28;20110;-66
2023/06/19 09:52:24;;;;;;;4.10;2.97;;;24.50;99.90;;;;;;5090819;28;20111;-66
2023/06/19 09:54:52;;;;;;;5.97;2.47;;;24.50;99.90;;;;;;5096466;28;20024;-66
2023/06/19 09:57:19;;;;;;;7.50;2.70;;;24.80;99.90;;;;;;5097314;28;20031;-66
2023/06/19 09:59:49;;;;;;;5.63;2.53;;;25.20;99.70;;;;;;5090954;28;20031;-66
2023/06/19 10:02:17;;;;;;;4.57;2.42;;;26.10;1.00;;;;;;5091590;28;20032;-66
2023/06/19 10:04:45;;;;;;;2.70;2.33;;;26.50;1.00;;;;;;5088341;28;20474;-66
2023/06/19 10:07:33;;;;;;;3.10;2.40;;;26.50;99.90;;;;;;5072132;28;20601;-66
2023/06/19 10:10:07;;;;;;;5.95;3.08;;;26.30;99.90;;;;;;5074724;28;20024;-68
2023/06/19 10:12:43;;;;;;;2.95;2.70;;;25.90;99.90;;;;;;5068277;28;20490;-66
2023/06/19 10:15:27;;;;;;;5.45;3.40;;;25.50;1.00;;;;;;5065793;28;20025;-66
2023/06/19 10:18:00;;;;;;;3.08;2.75;;;25.50;1.00;;;;;;5075721;28;20024;-66
2023/06/19 10:20:31;;;;;;;;;;;25.80;99.90;;;;;;5072021;28;20024;-67
2023/06/19 10:22:59;;;;;;;3.60;3.15;;;25.60;99.90;;;;;;5062841;28;19909;-68
2023/06/19 10:25:29;;;;;;;5.25;3.05;;;25.90;99.90;;;;;;5060916;28;20463;-66
2023/06/19 10:27:54;;;;;;;6.30;3.40;;;26.20;99.90;;;;;;5056412;28;20029;-68
2023/06/19 10:30:20;;;;;;;5.75;3.42;;;25.70;99.90;;;;;;5052105;28;20028;-66
2023/06/19 10:32:47;;;;;;;4.20;3.60;;;25.80;99.90;;;;;;5058661;28;20040;-66
2023/06/19 10:35:14;;;;;;;7.05;3.65;;;25.80;99.90;;;;;;5051166;28;20025;-66
2023/06/19 10:37:40;;;;;;;5.97;3.40;;;25.30;99.90;;;;;;5055027;28;20548;-66
2023/06/19 10:40:09;;;;;;;6.38;3.63;;;25.40;99.90;;;;;;5055300;28;20060;-66
2023/06/19 10:42:37;;;;;;;5.03;3.05;;;25.20;1.00;;;;;;5053181;28;20032;-67
2023/06/19 10:45:05;;;;;;;3.80;3.50;;;25.60;1.00;;;;;;5053500;28;20029;-68
2023/06/19 10:47:32;;;;;;;6.03;3.22;;;26.50;99.90;;;;;;5055287;28;20043;-67
2023/06/19 10:49:58;;;;;;;4.35;2.58;;;25.90;99.90;;;;;;5052380;28;20029;-68
2023/06/19 10:52:23;;;;;;;2.60;2.40;;;25.50;99.90;;;;;;5056017;28;20024;-66
2023/06/19 10:54:57;;;;;;;3.50;2.05;;;25.30;99.90;;;;;;5056521;28;20048;-66
2023/06/19 10:57:30;;;;;;;1.60;1.50;;;25.70;99.90;;;;;;5053439;28;20029;-67
2023/06/19 10:59:56;;;;;;;;;;;26.00;99.90;;;;;;5061659;28;20028;-66
2023/06/19 11:02:22;;;;;;;4.18;2.03;;;26.10;99.90;;;;;;5055911;28;19908;-66
2023/06/19 11:04:48;;;;;;;5.03;1.95;;;26.30;99.90;;;;;;5054883;28;20056;-66
2023/06/19 11:07:14;;;;;;;2.28;2.08;;;26.30;99.90;;;;;;5045934;28;20029;-67
2023/06/19 11:09:39;;;;;;;3.95;2.20;;;25.90;99.90;;;;;;5050654;28;20025;-68
2023/06/19 11:12:07;;;;;;;2.38;2.00;;;25.70;99.90;;;;;;5046913;28;20041;-67
2023/06/19 11:14:39;;;;;;;5.93;2.80;;;25.70;99.90;;;;;;5037824;28;20053;-66
2023/06/19 11:17:06;;;;;;;4.80;2.45;;;25.50;99.90;;;;;;5054057;28;20471;-66
2023/06/19 11:19:33;;;;;;;4.22;2.40;;;25.30;99.90;;;;;;5042292;28;20041;-67
2023/06/19 11:22:02;;;;;;;3.63;2.75;;;25.80;99.90;;;;;;5047532;28;20316;-67
2023/06/19 11:24:28;;;;;;;3.40;2.90;;;26.30;99.90;;;;;;5046269;28;20049;-67
2023/06/19 11:26:58;;;;;;;8.48;2.78;;;26.40;99.90;;;;;;5051710;28;20040;-68
2023/06/19 11:29:26;;;;;;;5.60;2.85;;;26.00;99.90;;;;;;5062122;28;20396;-68
2023/06/19 11:32:06;;;;;;;3.92;2.75;;;26.10;99.90;;;;;;5046104;28;20509;-69
2023/06/19 11:34:36;;;;;;;4.15;3.28;;;25.80;99.90;;;;;;5048551;28;20076;-68
2023/06/19 11:37:05;;;;;;;6.13;3.25;;;26.70;99.90;;;;;;5048006;28;20036;-67
2023/06/19 11:39:30;;;;;;;5.15;4.10;;;27.20;99.90;;;;;;5054942;28;20478;-66
2023/06/19 11:41:58;;;;;;;6.07;3.17;;;27.40;99.90;;;;;;5063189;28;20026;-66
2023/06/19 11:44:24;;;;;;;4.25;3.63;;;27.10;99.90;;;;;;5046998;28;20445;-67
2023/06/19 11:46:49;;;;;;;5.50;3.47;;;26.60;99.90;;;;;;5056100;28;20039;-68
2023/06/19 11:49:17;;;;;;;4.70;3.22;;;26.80;99.90;;;;;;5054294;28;20063;-68
2023/06/19 11:51:43;;;;;;;4.65;3.50;;;27.00;99.90;;;;;;5053745;28;20041;-68
2023/06/19 11:54:11;;;;;;;7.18;3.50;;;27.90;99.90;;;;;;5052424;28;20407;-68
2023/06/19 11:56:37;;;;;;;3.88;3.47;;;27.80;87.70;;;;;;5056631;28;20470;-69
2023/06/19 11:59:04;;;;;;;4.68;4.10;;;27.60;58.90;;;;;;5061482;28;20029;-68
2023/06/19 12:01:31;;;;;;;5.95;3.97;;;27.10;22.50;;;;;;5054571;28;20036;-67
2023/06/19 12:03:57;;;;;;;5.15;4.60;;;26.90;27.50;;;;;;5055794;28;20390;-67
2023/06/19 12:06:22;;;;;;;6.35;4.57;;;26.40;29.40;;;;;;5067955;28;20032;-68
2023/06/19 12:08:48;;;;;;;8.73;5.10;;;26.40;50.60;;;;;;5051109;28;20419;-69
2023/06/19 12:11:14;;;;;;;8.73;5.75;;;26.50;95.40;;;;;;5060337;28;20028;-68
2023/06/19 12:13:41;;;;;;;6.07;5.25;;;27.40;99.90;;;;;;5050776;28;20072;-66
2023/06/19 12:16:07;;;;;;;6.93;4.63;;;27.40;90.40;;;;;;5055775;28;20037;-68
2023/06/19 12:18:33;;;;;;;4.80;4.30;;;27.00;53.00;;;;;;5052609;28;20036;-67
2023/06/19 12:20:58;;;;;;;7.22;4.60;;;27.60;54.20;;;;;;5040182;28;20392;-67
2023/06/19 12:23:24;;;;;;;5.88;4.70;;;27.60;30.00;;;;;;5045605;28;20380;-67
2023/06/19 12:25:49;;;;;;;9.90;5.07;;;27.40;36.60;;;;;;5052232;28;20040;-67
2023/06/19 12:28:18;;;;;;;5.78;5.18;;;28.10;32.90;;;;;;5063042;28;20032;-67
2023/06/19 12:30:44;;;;;;;6.85;4.40;;;28.00;3.10;;;;;;5052780;28;20025;-67
2023/06/19 12:33:10;;;;;;;8.30;5.13;;;28.60;8.20;;;;;;5062217;28;20035;-67
2023/06/19 12:35:39;;;;;;;6.55;4.43;;;29.30;1.00;;;;;;5053210;28;20443;-67
2023/06/19 12:38:04;;;;;;;6.22;4.45;;;29.30;1.00;;;;;;5051422;28;20505;-67
2023/06/19 12:40:30;;;;;;;6.50;4.75;;;28.70;1.00;;;;;;5065338;28;20111;-67
2023/06/19 12:42:55;;;;;;;7.90;4.55;;;27.80;1.00;;;;;;5049975;28;20029;-67
2023/06/19 12:45:20;;;;;;;6.75;4.90;;;27.60;1.00;;;;;;5065934;28;20115;-67
2023/06/19 12:47:46;;;;;;;7.50;5.50;;;27.30;1.00;;;;;;5044957;28;20037;-67